East Bethany, New York
Current Conditions -  °F | °C
As of 11:54 AM on Thursday 30 Oct 2014 (Local Time) from KROC Reporting Station
Overcast Overcast  
Wind Chill: 42°   Ceiling: 2800
Heat Index: 46°   Visibility: 10mi
Dew Point: 34°   Wind: 8mph
Humidity: 63%   Direction: 310°NW
Pressure: 30.07"   Gusts: NA
Location:  42.93°N, 78.1°W
Report Text: KROC 301554Z 31007KT 10SM BKN028 OVC033 08/01 A3007 RMK AO2 SLP189 T00780011
Loading
Personal Weather Stations






























Interactive Weather Map
Tropical Storm Tracking
New forecast layout! Learn more

10-Day Weather Forecast

Advertisements
Track Severe Weather on mobile